createdAt,value
2019-05-03T00:02:29.599Z,14.70
2019-05-03T00:05:02.446Z,14.83
2019-05-03T00:07:32.184Z,15.53
2019-05-03T00:10:02.845Z,16.00
2019-05-03T00:12:32.819Z,15.40
2019-05-03T00:15:06.879Z,14.80
2019-05-03T00:17:36.040Z,13.97
2019-05-03T00:20:07.133Z,14.90
2019-05-03T00:22:36.326Z,14.80
2019-05-03T00:25:08.481Z,15.40
2019-05-03T00:27:37.875Z,15.87
2019-05-03T00:30:08.366Z,15.10
2019-05-03T00:32:37.608Z,15.17
2019-05-03T00:35:14.721Z,14.80
2019-05-03T00:37:45.519Z,15.10
2019-05-03T00:40:29.969Z,14.77
2019-05-03T00:42:59.130Z,14.80
2019-05-03T00:45:28.363Z,15.20
2019-05-03T00:47:57.554Z,16.13
2019-05-03T00:50:26.775Z,14.93
2019-05-03T00:52:55.931Z,15.77
2019-05-03T00:55:25.125Z,15.70
2019-05-03T00:57:54.284Z,15.23
2019-05-03T01:00:23.708Z,14.70
2019-05-03T01:02:52.897Z,14.73
2019-05-03T01:05:22.681Z,16.10
2019-05-03T01:07:52.586Z,15.00
2019-05-03T01:10:22.594Z,15.03
2019-05-03T01:12:52.549Z,15.77
2019-05-03T01:15:23.456Z,15.60
2019-05-03T01:17:52.642Z,15.37
2019-05-03T01:20:22.539Z,15.97
2019-05-03T01:22:52.031Z,15.57
2019-05-03T01:25:30.143Z,15.00
2019-05-03T01:27:52.265Z,16.10
2019-05-03T01:30:22.633Z,16.47
2019-05-03T01:32:52.420Z,15.47
2019-05-03T01:35:22.072Z,16.30
2019-05-03T01:37:51.798Z,16.57
2019-05-03T01:40:21.979Z,16.00
2019-05-03T01:42:51.936Z,15.63
2019-05-03T01:45:22.758Z,15.33
2019-05-03T01:48:08.966Z,16.00
2019-05-03T01:50:48.903Z,16.27
2019-05-03T01:53:21.566Z,15.37
2019-05-03T01:55:53.686Z,16.13
2019-05-03T01:58:23.396Z,14.60
2019-05-03T02:01:02.695Z,15.93
2019-05-03T02:03:52.288Z,15.37
2019-05-03T02:06:22.390Z,14.67
2019-05-03T02:08:52.206Z,15.70
2019-05-03T02:11:22.259Z,16.37
2019-05-03T02:13:52.183Z,15.93
2019-05-03T02:16:21.942Z,15.30
2019-05-03T02:18:51.847Z,15.97
2019-05-03T02:21:21.715Z,16.40
2019-05-03T02:23:52.105Z,16.07
2019-05-03T02:26:22.447Z,17.43
2019-05-03T02:28:52.711Z,17.40
2019-05-03T02:31:23.107Z,16.97
2019-05-03T02:33:53.309Z,16.30
2019-05-03T02:36:23.472Z,15.60
2019-05-03T02:38:53.754Z,17.20
2019-05-03T02:41:23.488Z,17.43
2019-05-03T02:43:57.088Z,17.33
2019-05-03T02:46:30.711Z,16.87
2019-05-03T02:49:10.468Z,17.73
2019-05-03T02:51:39.638Z,17.60
2019-05-03T02:54:08.859Z,18.13
2019-05-03T02:56:38.048Z,17.40
2019-05-03T02:59:07.207Z,17.40
2019-05-03T03:01:36.694Z,18.93
2019-05-03T03:04:06.251Z,17.00
2019-05-03T03:06:37.033Z,18.50
2019-05-03T03:09:07.344Z,18.30
2019-05-03T03:11:39.365Z,17.47
2019-05-03T03:14:11.675Z,19.00
2019-05-03T03:16:45.543Z,17.73
2019-05-03T03:19:17.242Z,18.13
2019-05-03T03:21:50.784Z,18.60
2019-05-03T03:24:22.549Z,18.77
2019-05-03T03:26:56.319Z,18.47
2019-05-03T03:29:26.731Z,19.03
2019-05-03T03:32:10.113Z,18.07
2019-05-03T03:35:03.944Z,19.47
2019-05-03T03:37:32.043Z,18.70
2019-05-03T03:40:01.578Z,19.00
2019-05-03T03:42:32.437Z,19.73
2019-05-03T03:45:06.065Z,19.97
2019-05-03T03:47:37.859Z,20.10
2019-05-03T03:50:09.038Z,20.40
2019-05-03T03:52:40.392Z,20.07
2019-05-03T03:55:10.530Z,21.20
2019-05-03T03:57:40.026Z,20.67
2019-05-03T04:00:09.924Z,20.90
2019-05-03T04:02:40.763Z,20.30
2019-05-03T04:05:10.587Z,20.50
2019-05-03T04:07:40.525Z,22.00
2019-05-03T04:10:10.874Z,21.33
2019-05-03T04:12:41.922Z,21.90
2019-05-03T04:15:21.390Z,22.30
2019-05-03T04:17:52.405Z,22.20
2019-05-03T04:20:26.021Z,22.63
2019-05-03T04:22:56.050Z,24.57
2019-05-03T04:25:26.560Z,24.93
2019-05-03T04:27:56.266Z,23.77
2019-05-03T04:30:26.122Z,24.03
2019-05-03T04:32:56.434Z,24.23
2019-05-03T04:35:26.758Z,25.27
2019-05-03T04:37:56.464Z,23.60
2019-05-03T04:40:26.139Z,24.57
2019-05-03T04:42:55.844Z,22.20
2019-05-03T04:45:25.857Z,23.03
2019-05-03T04:47:55.983Z,22.27
2019-05-03T04:50:25.909Z,20.37
2019-05-03T04:52:56.601Z,20.67
2019-05-03T04:55:26.802Z,19.87
2019-05-03T04:57:56.438Z,20.83
2019-05-03T05:00:26.655Z,19.90
2019-05-03T05:02:55.901Z,20.57
2019-05-03T05:05:26.067Z,18.30
2019-05-03T05:07:56.067Z,19.20
2019-05-03T05:10:26.006Z,17.53
2019-05-03T05:12:55.681Z,17.90
2019-05-03T05:15:26.407Z,17.47
2019-05-03T05:18:16.053Z,17.93
2019-05-03T05:21:04.467Z,18.33
2019-05-03T05:23:35.382Z,15.87
2019-05-03T05:26:09.059Z,17.23
2019-05-03T05:28:44.624Z,16.23
2019-05-03T05:31:15.120Z,14.73
2019-05-03T05:33:44.734Z,14.63
2019-05-03T05:36:15.299Z,14.70
2019-05-03T05:38:45.115Z,14.87
2019-05-03T05:41:15.886Z,14.97
2019-05-03T05:43:45.043Z,15.20
2019-05-03T05:46:14.780Z,15.87
2019-05-03T05:48:49.580Z,14.27
2019-05-03T05:51:18.739Z,10.73
2019-05-03T05:53:47.878Z,9.93
2019-05-03T05:56:18.719Z,9.80
2019-05-03T05:58:52.748Z,10.00
2019-05-03T06:01:25.028Z,10.67
2019-05-03T06:03:55.080Z,12.13
2019-05-03T06:06:35.214Z,10.57
2019-05-03T06:09:20.404Z,8.43
2019-05-03T06:12:06.404Z,7.83
2019-05-03T06:14:39.928Z,6.20
2019-05-03T06:17:19.611Z,5.30
2019-05-03T06:19:50.402Z,4.47
2019-05-03T06:22:26.728Z,4.30
2019-05-03T06:24:57.515Z,3.10
2019-05-03T06:27:31.386Z,2.83
2019-05-03T06:30:02.216Z,3.40
2019-05-03T06:32:34.524Z,2.90
2019-05-03T06:35:05.420Z,3.53
2019-05-03T06:37:36.374Z,3.33
2019-05-03T06:40:07.364Z,3.20
2019-05-03T06:42:36.510Z,3.30
2019-05-03T06:45:10.190Z,2.70
2019-05-03T06:47:40.299Z,2.73
2019-05-03T06:50:09.472Z,2.87
2019-05-03T06:52:38.729Z,2.97
2019-05-03T06:55:10.641Z,3.10
2019-05-03T06:57:45.645Z,3.77
2019-05-03T07:00:30.711Z,3.17
2019-05-03T07:03:01.505Z,2.83
2019-05-03T07:05:38.375Z,2.50
2019-05-03T07:08:25.474Z,2.90
2019-05-03T07:10:56.329Z,2.90
2019-05-03T07:13:25.568Z,3.40
2019-05-03T07:15:56.056Z,3.20
2019-05-03T07:18:25.431Z,2.93
2019-05-03T07:20:57.092Z,3.07
2019-05-03T07:23:26.518Z,3.30
2019-05-03T07:25:55.720Z,3.40
2019-05-03T07:28:24.975Z,3.30
2019-05-03T07:30:54.736Z,3.27
2019-05-03T07:33:28.517Z,3.27
2019-05-03T07:35:57.813Z,3.40
2019-05-03T07:38:27.023Z,3.87
2019-05-03T07:40:56.595Z,3.50
2019-05-03T07:43:25.738Z,3.20
2019-05-03T07:45:55.369Z,3.33
2019-05-03T07:48:25.500Z,3.60
2019-05-03T07:50:55.156Z,3.47
2019-05-03T07:53:25.207Z,3.20
2019-05-03T07:56:05.486Z,3.33
2019-05-03T07:58:39.521Z,3.87
2019-05-03T08:01:26.543Z,3.60
2019-05-03T08:03:55.691Z,3.40
2019-05-03T08:06:24.877Z,3.17
2019-05-03T08:08:54.564Z,3.37
2019-05-03T08:11:24.853Z,3.70
2019-05-03T08:13:54.982Z,3.50
2019-05-03T08:16:25.265Z,3.60
2019-05-03T08:18:55.821Z,6.60
2019-05-03T08:21:25.405Z,3.73
2019-05-03T08:23:55.655Z,3.33
2019-05-03T08:26:25.655Z,4.13
2019-05-03T08:28:55.423Z,3.77
2019-05-03T08:31:38.509Z,3.83
2019-05-03T08:34:15.409Z,3.80
2019-05-03T08:36:58.649Z,4.03
2019-05-03T08:39:27.811Z,4.43
2019-05-03T08:41:58.598Z,4.53
2019-05-03T08:44:28.170Z,3.70
2019-05-03T08:46:59.067Z,3.47
2019-05-03T08:49:28.563Z,2.90
2019-05-03T08:51:57.822Z,3.03
2019-05-03T08:54:27.283Z,3.03
2019-05-03T08:56:57.159Z,2.80
2019-05-03T08:59:31.792Z,2.93
2019-05-03T09:01:57.176Z,2.60
2019-05-03T09:04:36.083Z,3.00
2019-05-03T09:06:57.299Z,2.33
2019-05-03T09:09:31.209Z,2.73
2019-05-03T09:12:00.425Z,2.33
2019-05-03T09:14:41.484Z,3.00
2019-05-03T09:17:01.502Z,2.83
2019-05-03T09:19:31.326Z,2.47
2019-05-03T09:22:00.630Z,2.50
2019-05-03T09:24:29.866Z,2.37
2019-05-03T09:26:59.167Z,2.60
2019-05-03T09:29:40.292Z,2.47
2019-05-03T09:31:59.229Z,2.83
2019-05-03T09:34:29.866Z,2.77
2019-05-03T09:36:59.050Z,2.40
2019-05-03T09:39:28.275Z,2.33
2019-05-03T09:41:57.422Z,3.00
2019-05-03T09:44:26.631Z,2.53
2019-05-03T09:46:55.845Z,2.60
2019-05-03T09:49:25.412Z,2.70
2019-05-03T09:51:55.072Z,2.77
2019-05-03T09:54:26.098Z,2.33
2019-05-03T09:57:00.220Z,2.73
2019-05-03T09:59:30.336Z,2.60
2019-05-03T10:02:04.463Z,2.43
2019-05-03T10:04:33.483Z,2.47
2019-05-03T10:07:02.669Z,2.50
2019-05-03T10:09:32.059Z,2.63
2019-05-03T10:12:02.181Z,2.60
2019-05-03T10:14:31.445Z,2.60
2019-05-03T10:17:07.894Z,2.47
2019-05-03T10:19:40.308Z,3.23
2019-05-03T10:22:08.067Z,2.57
2019-05-03T10:24:37.223Z,2.70
2019-05-03T10:27:06.405Z,2.73
2019-05-03T10:29:35.563Z,2.40
2019-05-03T10:32:09.406Z,2.57
2019-05-03T10:34:38.598Z,2.40
2019-05-03T10:37:09.390Z,2.73
2019-05-03T10:39:38.546Z,2.20
2019-05-03T10:42:07.812Z,2.70
2019-05-03T10:44:36.978Z,2.73
2019-05-03T10:47:06.198Z,2.57
2019-05-03T10:49:35.555Z,2.20
2019-05-03T10:52:06.600Z,2.00
2019-05-03T10:54:36.000Z,2.13
2019-05-03T10:57:09.488Z,2.37
2019-05-03T10:59:38.629Z,1.80
2019-05-03T11:02:25.670Z,2.03
2019-05-03T11:04:55.376Z,1.63
2019-05-03T11:07:25.681Z,1.90
2019-05-03T11:09:55.251Z,1.70
2019-05-03T11:12:25.459Z,1.87
2019-05-03T11:14:54.939Z,2.03
2019-05-03T11:17:25.646Z,1.90
2019-05-03T11:19:55.166Z,2.03
2019-05-03T11:22:25.202Z,2.20
2019-05-03T11:24:54.755Z,1.73
2019-05-03T11:27:42.124Z,1.70
2019-05-03T11:30:15.642Z,1.97
2019-05-03T11:32:45.875Z,1.80
2019-05-03T11:35:16.751Z,1.40
2019-05-03T11:37:50.435Z,1.40
2019-05-03T11:40:19.822Z,1.60
2019-05-03T11:42:50.306Z,1.67
2019-05-03T11:45:19.922Z,1.60
2019-05-03T11:47:49.173Z,2.07
2019-05-03T11:50:18.555Z,1.57
2019-05-03T11:52:47.846Z,1.90
2019-05-03T11:55:17.141Z,1.77
2019-05-03T11:57:46.495Z,1.40
2019-05-03T12:00:20.118Z,1.50
2019-05-03T12:02:55.632Z,1.97
2019-05-03T12:05:26.423Z,2.07
2019-05-03T12:07:55.654Z,2.10
2019-05-03T12:10:36.303Z,1.60
2019-05-03T12:12:57.532Z,1.63
2019-05-03T12:15:26.841Z,1.80
2019-05-03T12:18:00.631Z,1.70
2019-05-03T12:20:31.766Z,1.63
2019-05-03T12:23:02.060Z,1.53
2019-05-03T12:25:32.486Z,1.90
2019-05-03T12:28:05.636Z,1.90
2019-05-03T12:30:35.321Z,1.90
2019-05-03T12:33:06.012Z,1.90
2019-05-03T12:35:38.365Z,1.90
2019-05-03T12:38:07.608Z,1.90
2019-05-03T12:40:37.087Z,1.80
2019-05-03T12:43:06.365Z,1.50
2019-05-03T12:45:35.957Z,1.60
2019-05-03T12:48:05.304Z,1.60
2019-05-03T12:50:34.959Z,1.70
2019-05-03T12:53:04.988Z,1.73
2019-05-03T12:55:37.467Z,1.77
2019-05-03T12:58:06.807Z,1.60
2019-05-03T13:00:55.679Z,1.50
2019-05-03T13:03:26.318Z,1.70
2019-05-03T13:05:55.648Z,1.63
2019-05-03T13:08:41.160Z,1.87
2019-05-03T13:11:10.593Z,1.70
2019-05-03T13:13:39.759Z,1.83
2019-05-03T13:16:10.468Z,1.80
2019-05-03T13:18:39.632Z,1.83
2019-05-03T13:21:08.889Z,1.80
2019-05-03T13:23:38.100Z,1.70
2019-05-03T13:26:07.647Z,1.90
2019-05-03T13:28:37.030Z,1.40
2019-05-03T13:31:06.334Z,2.13
2019-05-03T13:33:35.513Z,1.70
2019-05-03T13:36:05.677Z,1.70
2019-05-03T13:38:35.264Z,2.03
2019-05-03T13:41:06.583Z,1.70
2019-05-03T13:43:36.166Z,1.57
2019-05-03T13:46:05.708Z,2.50
2019-05-03T13:48:42.505Z,1.90
2019-05-03T13:51:05.822Z,1.60
2019-05-03T13:53:35.085Z,1.70
2019-05-03T13:56:05.051Z,1.80
2019-05-03T13:58:35.795Z,1.60
2019-05-03T14:01:06.131Z,1.77
2019-05-03T14:03:35.919Z,1.80
2019-05-03T14:06:08.671Z,1.57
2019-05-03T14:08:35.974Z,1.90
2019-05-03T14:11:05.664Z,1.93
2019-05-03T14:13:35.622Z,1.50
2019-05-03T14:16:06.046Z,1.77
2019-05-03T14:18:35.939Z,1.87
2019-05-03T14:21:14.971Z,1.87
2019-05-03T14:24:01.642Z,1.57
2019-05-03T14:26:30.904Z,1.80
2019-05-03T14:29:00.375Z,1.67
2019-05-03T14:31:29.694Z,1.63
2019-05-03T14:33:58.883Z,1.83
2019-05-03T14:36:28.034Z,1.37
2019-05-03T14:38:57.187Z,1.30
2019-05-03T14:41:26.466Z,2.10
2019-05-03T14:43:55.860Z,1.77
2019-05-03T14:46:32.558Z,1.67
2019-05-03T14:48:56.251Z,1.90
2019-05-03T14:51:25.782Z,2.23
2019-05-03T14:53:56.992Z,3.20
2019-05-03T14:56:30.618Z,2.60
2019-05-03T14:59:19.643Z,2.33
2019-05-03T15:01:55.215Z,2.10
2019-05-03T15:04:25.504Z,1.97
2019-05-03T15:06:57.713Z,2.17
2019-05-03T15:09:25.793Z,2.00
2019-05-03T15:11:54.952Z,1.60
2019-05-03T15:14:25.147Z,1.90
2019-05-03T15:16:55.768Z,1.93
2019-05-03T15:19:25.490Z,1.60
2019-05-03T15:21:54.900Z,1.60
2019-05-03T15:24:25.191Z,2.00
2019-05-03T15:26:55.355Z,1.80
2019-05-03T15:29:24.954Z,1.70
2019-05-03T15:31:55.307Z,1.80
2019-05-03T15:34:24.816Z,1.87
2019-05-03T15:36:54.645Z,1.97
2019-05-03T15:39:24.261Z,1.90
2019-05-03T15:41:54.402Z,1.90
2019-05-03T15:44:41.243Z,1.70
2019-05-03T15:47:12.057Z,2.20
2019-05-03T15:49:41.270Z,1.80
2019-05-03T15:52:12.116Z,1.70
2019-05-03T15:54:41.272Z,1.97
2019-05-03T15:57:10.422Z,2.23
2019-05-03T15:59:39.609Z,2.20
2019-05-03T16:02:08.772Z,1.90
2019-05-03T16:04:37.930Z,1.70
2019-05-03T16:07:07.207Z,1.90
2019-05-03T16:09:36.492Z,1.60
2019-05-03T16:12:05.987Z,2.10
2019-05-03T16:14:35.182Z,2.03
2019-05-03T16:17:04.495Z,1.63
2019-05-03T16:19:35.454Z,1.73
2019-05-03T16:22:05.352Z,2.10
2019-05-03T16:24:35.540Z,2.30
2019-05-03T16:27:21.378Z,2.00
2019-05-03T16:29:50.527Z,2.03
2019-05-03T16:32:19.703Z,2.73
2019-05-03T16:34:48.979Z,2.67
2019-05-03T16:37:18.139Z,2.87
2019-05-03T16:39:47.304Z,3.10
2019-05-03T16:42:16.515Z,2.70
2019-05-03T16:44:46.801Z,3.63
2019-05-03T16:47:15.954Z,2.90
2019-05-03T16:49:45.133Z,2.63
2019-05-03T16:52:14.711Z,2.30
2019-05-03T16:54:45.417Z,2.30
2019-05-03T16:57:17.471Z,1.87
2019-05-03T16:59:45.788Z,2.20
2019-05-03T17:02:17.448Z,2.57
2019-05-03T17:04:59.784Z,2.53
2019-05-03T17:07:46.650Z,2.30
2019-05-03T17:10:27.997Z,2.60
2019-05-03T17:12:57.161Z,3.17
2019-05-03T17:15:27.231Z,3.27
2019-05-03T17:17:56.433Z,2.70
2019-05-03T17:20:25.605Z,2.73
2019-05-03T17:22:55.493Z,2.60
2019-05-03T17:25:25.009Z,2.90
2019-05-03T17:27:54.368Z,3.50
2019-05-03T17:30:32.571Z,3.57
2019-05-03T17:32:55.157Z,4.30
2019-05-03T17:35:25.143Z,3.13
2019-05-03T17:37:54.689Z,4.17
2019-05-03T17:40:28.976Z,3.63
2019-05-03T17:43:02.826Z,3.40
2019-05-03T17:45:45.994Z,3.10
2019-05-03T17:48:15.153Z,3.50
2019-05-03T17:50:45.429Z,4.33
2019-05-03T17:53:19.063Z,4.90
2019-05-03T17:56:06.053Z,6.37
2019-05-03T17:58:40.627Z,5.53
2019-05-03T18:01:29.503Z,3.80
2019-05-03T18:04:19.685Z,3.20
2019-05-03T18:07:05.278Z,3.50
2019-05-03T18:09:36.195Z,3.00
2019-05-03T18:12:06.393Z,3.17
2019-05-03T18:14:35.611Z,4.33
2019-05-03T18:17:05.703Z,4.97
2019-05-03T18:19:35.184Z,6.13
2019-05-03T18:22:05.309Z,6.00
2019-05-03T18:24:35.270Z,3.77
2019-05-03T18:27:05.501Z,3.90
2019-05-03T18:29:34.897Z,3.40
2019-05-03T18:32:06.102Z,3.40
2019-05-03T18:34:35.318Z,2.63
2019-05-03T18:37:06.792Z,2.80
2019-05-03T18:39:36.007Z,2.27
2019-05-03T18:42:07.048Z,2.53
2019-05-03T18:44:37.846Z,2.77
2019-05-03T18:47:08.759Z,2.83
2019-05-03T18:49:37.914Z,2.70
2019-05-03T18:52:07.061Z,2.87
2019-05-03T18:54:36.282Z,3.20
2019-05-03T18:57:05.527Z,2.77
2019-05-03T18:59:34.893Z,2.63
2019-05-03T19:02:05.464Z,3.10
2019-05-03T19:04:45.024Z,3.13
2019-05-03T19:07:18.279Z,3.87
2019-05-03T19:09:49.135Z,2.97
2019-05-03T19:12:22.744Z,3.20
2019-05-03T19:14:51.903Z,4.00
2019-05-03T19:17:41.118Z,4.53
2019-05-03T19:20:12.249Z,4.13
2019-05-03T19:22:41.398Z,3.30
2019-05-03T19:25:11.321Z,3.03
2019-05-03T19:27:40.481Z,2.83
2019-05-03T19:30:11.482Z,3.20
2019-05-03T19:32:41.056Z,3.10
2019-05-03T19:35:10.468Z,3.40
2019-05-03T19:37:39.758Z,2.87
2019-05-03T19:40:10.000Z,3.20
2019-05-03T19:42:39.222Z,4.67
2019-05-03T19:45:09.720Z,6.40
2019-05-03T19:47:38.905Z,9.30
2019-05-03T19:50:08.758Z,7.17
2019-05-03T19:52:42.309Z,5.40
2019-05-03T19:55:11.941Z,5.40
2019-05-03T19:57:42.759Z,6.00
2019-05-03T20:00:12.445Z,6.77
2019-05-03T20:02:45.276Z,6.73
2019-05-03T20:05:21.765Z,7.27
2019-05-03T20:07:54.248Z,6.93
2019-05-03T20:10:25.402Z,7.93
2019-05-03T20:12:55.625Z,7.70
2019-05-03T20:15:24.908Z,9.17
2019-05-03T20:17:59.853Z,10.60
2019-05-03T20:20:24.919Z,9.43
2019-05-03T20:22:54.863Z,8.87
2019-05-03T20:25:24.634Z,8.37
2019-05-03T20:27:55.825Z,8.50
2019-05-03T20:30:25.590Z,9.90
2019-05-03T20:32:55.611Z,7.93
2019-05-03T20:35:25.335Z,8.30
2019-05-03T20:37:55.443Z,8.10
2019-05-03T20:40:25.588Z,7.23
2019-05-03T20:42:56.945Z,8.73
2019-05-03T20:45:30.727Z,8.90
2019-05-03T20:48:00.861Z,7.17
2019-05-03T20:50:30.018Z,7.83
2019-05-03T20:52:59.203Z,7.67
2019-05-03T20:55:29.252Z,7.77
2019-05-03T20:57:58.493Z,7.07
2019-05-03T21:00:27.686Z,7.50
2019-05-03T21:02:58.062Z,7.63
2019-05-03T21:05:31.753Z,7.43
2019-05-03T21:07:58.182Z,6.93
2019-05-03T21:10:27.336Z,7.23
2019-05-03T21:12:56.488Z,7.17
2019-05-03T21:15:27.415Z,7.00
2019-05-03T21:18:10.679Z,7.37
2019-05-03T21:20:45.063Z,6.90
2019-05-03T21:23:35.202Z,6.93
2019-05-03T21:26:12.484Z,7.53
2019-05-03T21:28:38.159Z,6.17
2019-05-03T21:31:07.310Z,7.20
2019-05-03T21:33:36.509Z,7.00
2019-05-03T21:36:05.674Z,6.80
2019-05-03T21:38:35.537Z,8.00
2019-05-03T21:41:05.574Z,6.93
2019-05-03T21:43:34.983Z,7.93
2019-05-03T21:46:06.170Z,8.23
2019-05-03T21:48:55.248Z,10.10
2019-05-03T21:51:24.525Z,10.27
2019-05-03T21:53:53.840Z,8.97
2019-05-03T21:56:24.825Z,10.00
2019-05-03T21:58:55.325Z,9.40
2019-05-03T22:01:26.103Z,8.70
2019-05-03T22:03:55.585Z,9.67
2019-05-03T22:06:24.840Z,10.23
2019-05-03T22:08:55.463Z,8.73
2019-05-03T22:11:25.248Z,10.13
2019-05-03T22:13:57.156Z,10.93
2019-05-03T22:16:40.048Z,11.27
2019-05-03T22:19:09.347Z,11.97
2019-05-03T22:21:40.770Z,12.47
2019-05-03T22:24:20.443Z,12.87
2019-05-03T22:27:07.021Z,11.80
2019-05-03T22:29:37.165Z,12.33
2019-05-03T22:32:06.320Z,11.47
2019-05-03T22:34:36.306Z,10.90
2019-05-03T22:37:06.334Z,10.97
2019-05-03T22:39:35.550Z,12.03
2019-05-03T22:42:06.033Z,11.17
2019-05-03T22:44:35.754Z,11.53
2019-05-03T22:47:05.628Z,11.93
2019-05-03T22:49:37.164Z,11.20
2019-05-03T22:52:06.829Z,10.90
2019-05-03T22:54:36.257Z,11.27
2019-05-03T22:57:05.484Z,11.77
2019-05-03T22:59:34.667Z,11.20
2019-05-03T23:02:03.842Z,11.67
2019-05-03T23:04:35.471Z,11.53
2019-05-03T23:07:05.555Z,12.03
2019-05-03T23:09:35.250Z,11.53
2019-05-03T23:12:05.548Z,12.13
2019-05-03T23:14:34.893Z,11.63
2019-05-03T23:17:04.226Z,11.83
2019-05-03T23:19:35.327Z,11.50
2019-05-03T23:22:15.387Z,10.57
2019-05-03T23:24:44.812Z,11.37
2019-05-03T23:27:14.417Z,11.13
2019-05-03T23:29:45.456Z,11.80
2019-05-03T23:32:15.394Z,12.07
2019-05-03T23:34:46.279Z,12.53
2019-05-03T23:37:15.532Z,12.83
2019-05-03T23:39:44.765Z,13.23
2019-05-03T23:42:15.501Z,14.13
2019-05-03T23:44:45.626Z,15.33
2019-05-03T23:47:29.134Z,15.13
2019-05-03T23:49:58.460Z,15.40
2019-05-03T23:52:29.250Z,16.03
2019-05-03T23:55:00.123Z,16.93
2019-05-03T23:57:30.021Z,16.73
2019-05-03T23:59:59.313Z,17.93
